Time;durP1;ratioP1;P1;durP2;ratioP2;P2;SDS_P1;SDS_P2;PMS_P1;PMS_P2;Temp;Humidity;BMP_temperature;BMP_pressure;BME280_temperature;BME280_humidity;BME280_pressure;Samples;Min_cycle;Max_cycle;Signal;HPM_P1;HPM_P2
2021/12/24 00:01:07;;;;;;;8.25;4.43;;;-22.90;92.40;;;;;;2220730;64;20084;-43
2021/12/24 00:03:36;;;;;;;8.00;2.60;;;-22.80;92.50;;;;;;2220091;64;20147;-41
2021/12/24 00:06:06;;;;;;;7.47;3.13;;;-22.80;92.60;;;;;;2220565;64;20092;-42
2021/12/24 00:08:33;;;;;;;9.10;4.03;;;-22.80;92.50;;;;;;2220564;64;20534;-43
2021/12/24 00:11:01;;;;;;;8.63;2.73;;;-22.90;92.50;;;;;;2220449;64;20129;-43
2021/12/24 00:13:37;;;;;;;10.13;3.50;;;-22.90;92.50;;;;;;2220736;64;20088;-42
2021/12/24 00:16:15;;;;;;;;;;;-22.90;92.40;;;;;;2220912;64;20168;-42
2021/12/24 00:18:47;;;;;;;9.60;2.57;;;-22.90;92.40;;;;;;2220658;64;20031;-43
2021/12/24 00:35:40;;;;;;;10.97;3.80;;;-23.00;92.10;;;;;;2220539;64;20096;-42
2021/12/24 00:38:13;;;;;;;10.00;2.95;;;-23.10;92.10;;;;;;2219892;64;20097;-41
2021/12/24 00:40:47;;;;;;;5.17;1.40;;;-23.10;92.10;;;;;;2219214;64;20089;-43
2021/12/24 00:43:21;;;;;;;5.97;2.85;;;-23.10;92.10;;;;;;2216139;64;20092;-43
2021/12/24 00:45:53;;;;;;;10.63;3.00;;;-23.10;92.20;;;;;;2216253;64;20097;-42
2021/12/24 00:48:25;;;;;;;9.20;4.07;;;-23.10;92.30;;;;;;2216139;64;20103;-41
2021/12/24 00:56:11;;;;;;;9.60;3.22;;;-23.10;92.40;;;;;;2216278;64;20085;-43
2021/12/24 00:58:44;;;;;;;5.33;2.47;;;-23.10;92.30;;;;;;2216082;64;20069;-43
2021/12/24 01:01:18;;;;;;;11.77;2.80;;;-23.10;92.30;;;;;;2216082;64;20089;-42
2021/12/24 01:03:50;;;;;;;10.40;3.88;;;-23.10;92.20;;;;;;2216015;64;20460;-42
2021/12/24 01:06:22;;;;;;;7.93;3.13;;;-23.20;92.10;;;;;;2216065;64;20089;-42
2021/12/24 01:08:59;;;;;;;7.03;3.13;;;-23.20;92.10;;;;;;2215964;64;20175;-42
2021/12/24 01:11:38;;;;;;;10.73;4.13;;;-23.20;92.20;;;;;;2216071;64;20081;-43
2021/12/24 01:14:10;;;;;;;9.00;3.07;;;-23.20;92.20;;;;;;2215980;64;20101;-43
2021/12/24 01:16:50;;;;;;;7.40;2.10;;;-23.20;92.20;;;;;;2215941;64;20077;-44
2021/12/24 01:19:25;;;;;;;11.87;4.77;;;-23.20;92.20;;;;;;2212770;64;20181;-43
2021/12/24 01:24:52;;;;;;;7.33;3.03;;;-23.20;92.20;;;;;;2215862;64;20468;-42
2021/12/24 01:39:05;;;;;;;5.33;2.47;;;-23.20;92.50;;;;;;2217253;64;20092;-43
2021/12/24 01:44:34;;;;;;;16.20;3.00;;;-23.10;92.30;;;;;;2216816;64;20230;-43
2021/12/24 01:47:08;;;;;;;8.75;2.67;;;-23.00;92.30;;;;;;2213568;64;20103;-42
2021/12/24 01:49:41;;;;;;;11.23;5.13;;;-23.00;92.30;;;;;;2216641;64;20097;-42
2021/12/24 01:52:16;;;;;;;;;;;-23.00;92.30;;;;;;2213522;64;20093;-42
2021/12/24 01:54:50;;;;;;;7.45;2.60;;;-22.90;92.40;;;;;;2216647;64;19965;-43
2021/12/24 01:57:22;;;;;;;10.32;4.25;;;-22.90;92.40;;;;;;2213625;64;20167;-43
2021/12/24 01:59:56;;;;;;;12.63;3.20;;;-22.80;92.40;;;;;;2217249;64;20587;-43
2021/12/24 02:02:30;;;;;;;14.98;5.53;;;-22.80;92.40;;;;;;2214257;64;20095;-43
2021/12/24 02:05:03;;;;;;;10.60;4.85;;;-22.90;92.20;;;;;;2216503;64;20113;-42
2021/12/24 02:07:36;;;;;;;12.13;5.40;;;-23.00;91.90;;;;;;2216447;64;20100;-42
2021/12/24 02:10:10;;;;;;;11.23;4.20;;;-23.10;91.90;;;;;;2216493;64;20182;-41
2021/12/24 02:12:42;;;;;;;8.75;3.85;;;-23.20;91.90;;;;;;2216699;64;20132;-42
2021/12/24 02:15:28;;;;;;;10.37;4.23;;;-23.20;92.00;;;;;;2216740;64;20170;-43
2021/12/24 02:29:27;;;;;;;12.15;4.00;;;-23.10;92.30;;;;;;2208426;64;20654;-43
2021/12/24 02:32:00;;;;;;;11.83;4.40;;;-23.10;92.30;;;;;;2211635;64;20107;-43
2021/12/24 02:34:34;;;;;;;11.43;2.97;;;-23.00;92.40;;;;;;2211933;64;20564;-43
2021/12/24 02:37:09;;;;;;;10.53;2.90;;;-23.10;92.30;;;;;;2209133;64;20156;-43
2021/12/24 02:39:42;;;;;;;12.48;4.65;;;-23.10;92.20;;;;;;2212345;64;20108;-42
2021/12/24 02:42:20;;;;;;;4.73;2.67;;;-23.00;92.30;;;;;;2207427;64;20094;-45
2021/12/24 02:44:53;;;;;;;12.90;5.33;;;-23.00;92.40;;;;;;2204231;64;20102;-42
2021/12/24 02:55:39;;;;;;;8.80;4.47;;;-23.00;92.30;;;;;;2204712;64;20584;-43
2021/12/24 02:58:12;;;;;;;10.67;4.53;;;-23.00;92.30;;;;;;2203839;64;20086;-43
2021/12/24 03:00:47;;;;;;;10.40;4.10;;;-23.00;92.30;;;;;;2207718;64;20557;-43
2021/12/24 03:03:21;;;;;;;7.68;3.60;;;-23.10;92.20;;;;;;2204557;64;20093;-42
2021/12/24 03:05:53;;;;;;;7.93;3.70;;;-23.10;92.10;;;;;;2204321;64;20608;-44
2021/12/24 03:08:26;;;;;;;4.57;2.03;;;-23.10;92.10;;;;;;2208670;64;20172;-44
2021/12/24 03:10:59;;;;;;;10.23;4.13;;;-23.10;92.10;;;;;;2208602;64;20090;-43
2021/12/24 03:13:35;;;;;;;4.50;2.85;;;-23.10;92.10;;;;;;2212064;64;20097;-43
2021/12/24 03:16:07;;;;;;;6.70;2.87;;;-23.10;92.20;;;;;;2214580;64;20081;-43
2021/12/24 03:18:43;;;;;;;8.83;3.37;;;-23.10;92.20;;;;;;2216569;64;20089;-44
2021/12/24 03:21:39;;;;;;;11.83;4.20;;;-23.10;92.10;;;;;;2216263;64;20092;-43
2021/12/24 03:26:49;;;;;;;14.17;4.03;;;-23.10;92.00;;;;;;2216324;64;20085;-43
2021/12/24 03:29:23;;;;;;;8.20;3.73;;;-23.20;92.00;;;;;;2212558;64;20097;-43
2021/12/24 03:31:55;;;;;;;8.60;2.73;;;-23.10;92.10;;;;;;2216506;64;20085;-43
2021/12/24 03:34:29;;;;;;;13.60;5.10;;;-23.10;92.10;;;;;;2216349;64;20484;-43
2021/12/24 03:37:06;;;;;;;11.67;5.20;;;-23.10;92.20;;;;;;2216206;64;20535;-44
2021/12/24 03:39:38;;;;;;;17.43;5.17;;;-23.00;92.40;;;;;;2216361;64;20097;-44
2021/12/24 03:42:10;;;;;;;8.63;3.97;;;-23.00;92.40;;;;;;2216107;64;20159;-43
2021/12/24 03:44:52;;;;;;;12.70;5.83;;;-22.90;92.50;;;;;;2216181;64;20577;-44
2021/12/24 03:47:34;;;;;;;;;;;-22.90;92.40;;;;;;2216354;64;20520;-43
2021/12/24 03:50:11;;;;;;;9.70;3.20;;;-22.90;92.40;;;;;;2218018;64;19988;-44
2021/12/24 03:53:06;;;;;;;6.37;3.07;;;-22.80;92.40;;;;;;2220303;64;20108;-45
2021/12/24 03:55:40;;;;;;;7.83;3.27;;;-22.80;92.20;;;;;;2219917;64;20111;-43
2021/12/24 03:58:18;;;;;;;7.90;3.30;;;-22.90;92.10;;;;;;2219804;64;20097;-44
2021/12/24 04:00:51;;;;;;;10.97;4.27;;;-22.90;92.10;;;;;;2216802;64;20556;-44
2021/12/24 04:03:23;;;;;;;8.38;3.80;;;-22.90;92.20;;;;;;2219914;64;20104;-44
2021/12/24 04:05:58;;;;;;;9.13;4.30;;;-22.90;92.10;;;;;;2219832;64;20103;-44
2021/12/24 04:08:33;;;;;;;10.27;4.23;;;-22.90;92.10;;;;;;2222878;64;20491;-43
2021/12/24 04:11:06;;;;;;;11.77;4.70;;;-22.90;92.10;;;;;;2219737;64;20139;-43
2021/12/24 04:13:39;;;;;;;9.98;4.47;;;-22.90;92.10;;;;;;2216997;64;20084;-44
2021/12/24 04:16:13;;;;;;;11.90;4.20;;;-22.90;92.10;;;;;;2219860;64;20433;-43
2021/12/24 04:19:11;;;;;;;9.55;2.88;;;-22.90;92.10;;;;;;2219898;64;20287;-43
2021/12/24 04:27:28;;;;;;;7.83;2.17;;;-22.90;92.30;;;;;;2219721;64;20159;-44
2021/12/24 04:30:21;;;;;;;13.52;4.53;;;-22.80;92.40;;;;;;2216654;64;20159;-43
2021/12/24 05:04:29;;;;;;;9.63;4.00;;;-22.80;92.10;;;;;;2215732;64;20101;-44
2021/12/24 05:09:52;;;;;;;7.80;3.97;;;-22.80;92.10;;;;;;2213532;64;20532;-42
2021/12/24 05:12:26;;;;;;;6.97;3.33;;;-22.70;92.20;;;;;;2216468;64;20088;-43
2021/12/24 05:15:00;;;;;;;12.18;4.25;;;-22.70;92.10;;;;;;2216470;64;20438;-45
2021/12/24 05:17:53;;;;;;;8.48;3.58;;;-22.60;92.30;;;;;;2216637;64;20546;-43
2021/12/24 05:23:19;;;;;;;11.87;5.03;;;-22.50;92.50;;;;;;2216474;64;20139;-42
2021/12/24 05:26:02;;;;;;;8.40;2.93;;;-22.50;92.30;;;;;;2216422;64;20111;-43
2021/12/24 05:28:33;;;;;;;14.57;6.23;;;-22.40;92.40;;;;;;2212775;64;20092;-43
2021/12/24 05:31:05;;;;;;;8.57;4.27;;;-22.50;91.80;;;;;;2216844;64;20127;-42
2021/12/24 05:33:43;;;;;;;9.87;3.43;;;-22.40;92.00;;;;;;2217195;64;20111;-43
2021/12/24 05:36:18;;;;;;;11.37;4.53;;;-22.30;92.00;;;;;;2217016;64;20099;-44
2021/12/24 05:38:56;;;;;;;11.40;3.60;;;-22.30;91.90;;;;;;2217091;64;20085;-43
2021/12/24 05:41:32;;;;;;;7.93;4.70;;;-22.30;92.00;;;;;;2219839;64;20761;-44
2021/12/24 05:44:09;;;;;;;11.10;4.90;;;-22.20;92.00;;;;;;2220481;64;20173;-44
2021/12/24 05:46:46;;;;;;;11.73;5.30;;;-22.10;92.00;;;;;;2220518;64;20170;-42
2021/12/24 05:49:18;;;;;;;10.83;3.10;;;-22.00;92.00;;;;;;2220370;64;20092;-43
2021/12/24 05:51:53;;;;;;;7.87;3.43;;;-21.90;92.10;;;;;;2220642;64;20154;-44
2021/12/24 05:54:30;;;;;;;11.23;4.33;;;-21.80;92.10;;;;;;2223487;64;20120;-43
2021/12/24 05:56:57;;;;;;;11.90;4.63;;;-21.70;91.90;;;;;;2220813;64;20169;-44
2021/12/24 05:59:23;;;;;;;6.93;3.30;;;-21.60;91.80;;;;;;2221208;64;20104;-43
2021/12/24 06:01:50;;;;;;;16.97;5.60;;;-21.50;91.70;;;;;;2221035;64;20130;-44
2021/12/24 06:04:17;;;;;;;18.20;8.17;;;-21.40;91.60;;;;;;2221242;64;20104;-43
2021/12/24 06:06:45;;;;;;;20.30;7.87;;;-21.40;91.30;;;;;;2220601;64;20120;-44
2021/12/24 06:09:13;;;;;;;11.23;4.40;;;-21.20;91.40;;;;;;2220975;64;20178;-43
2021/12/24 06:11:39;;;;;;;8.80;3.17;;;-21.10;91.20;;;;;;2220815;64;20080;-43
2021/12/24 06:14:11;;;;;;;11.87;4.73;;;-21.00;90.70;;;;;;2220813;64;20528;-43
2021/12/24 06:16:46;;;;;;;8.53;4.47;;;-21.00;90.70;;;;;;2220688;64;20105;-44
2021/12/24 06:19:13;;;;;;;11.53;2.90;;;-21.10;90.50;;;;;;2220959;64;20166;-43
2021/12/24 06:21:41;;;;;;;7.63;4.47;;;-21.00;90.70;;;;;;2220817;64;20127;-44
2021/12/24 06:24:09;;;;;;;9.53;4.73;;;-20.90;90.80;;;;;;2220776;64;20112;-43
2021/12/24 06:26:36;;;;;;;10.33;5.83;;;-20.90;90.30;;;;;;2220768;64;20099;-44
2021/12/24 06:29:05;;;;;;;22.07;6.10;;;-21.00;90.10;;;;;;2220882;64;20173;-43
2021/12/24 06:31:31;;;;;;;11.77;3.27;;;-20.70;90.40;;;;;;2220749;64;20100;-43
2021/12/24 06:34:00;;;;;;;7.70;4.07;;;-20.70;90.00;;;;;;2220694;64;20104;-44
2021/12/24 06:36:34;;;;;;;4.43;2.43;;;-20.60;90.00;;;;;;2220686;64;20092;-43
2021/12/24 06:39:03;;;;;;;6.55;3.30;;;-20.70;89.50;;;;;;2220885;64;20160;-43
2021/12/24 06:41:31;;;;;;;6.00;3.17;;;-20.90;89.60;;;;;;2220708;64;20077;-43
2021/12/24 06:43:58;;;;;;;14.03;6.30;;;-20.70;90.10;;;;;;2220900;64;20090;-45
2021/12/24 06:46:30;;;;;;;6.60;3.07;;;-20.70;89.90;;;;;;2220191;64;20085;-43
2021/12/24 06:48:57;;;;;;;13.10;6.00;;;-20.70;90.10;;;;;;2221267;64;20080;-44
2021/12/24 06:51:29;;;;;;;6.03;3.70;;;-20.60;89.30;;;;;;2220338;64;20587;-44
2021/12/24 06:54:02;;;;;;;9.13;4.47;;;-20.60;89.40;;;;;;2223172;64;20141;-44
2021/12/24 06:56:34;;;;;;;11.83;3.77;;;-20.50;89.80;;;;;;2220206;64;20092;-48
2021/12/24 06:59:05;;;;;;;10.10;5.00;;;-20.20;89.40;;;;;;2220224;64;20107;-44
2021/12/24 07:01:39;;;;;;;11.35;4.72;;;-20.20;88.30;;;;;;2223150;64;20638;-43
2021/12/24 07:04:12;;;;;;;7.80;2.77;;;-20.00;88.30;;;;;;2223174;64;20189;-43
2021/12/24 07:06:48;;;;;;;9.93;4.83;;;-19.70;88.80;;;;;;2223200;64;20100;-44
2021/12/24 07:09:20;;;;;;;4.73;1.67;;;-19.50;87.30;;;;;;2223195;64;20097;-44
2021/12/24 07:11:53;;;;;;;9.23;3.93;;;-19.40;87.60;;;;;;2223221;64;20095;-44
2021/12/24 07:14:25;;;;;;;9.27;4.10;;;-19.10;87.60;;;;;;2223761;64;20109;-44
2021/12/24 07:16:57;;;;;;;10.50;5.00;;;-19.00;86.00;;;;;;2223241;64;20104;-44
2021/12/24 07:19:29;;;;;;;8.63;4.23;;;-19.10;85.60;;;;;;2223389;64;20108;-44
2021/12/24 07:22:00;;;;;;;10.63;4.03;;;-19.00;85.20;;;;;;2223290;64;20096;-44
2021/12/24 07:24:37;;;;;;;7.20;2.30;;;-19.10;84.10;;;;;;2223142;64;20088;-45
2021/12/24 07:27:11;;;;;;;10.57;4.20;;;-19.30;85.50;;;;;;2223196;64;20077;-44
2021/12/24 07:29:44;;;;;;;11.70;4.67;;;-19.00;85.80;;;;;;2223062;64;20270;-44
2021/12/24 07:32:21;;;;;;;10.97;4.97;;;-19.00;84.60;;;;;;2222963;64;20080;-44
2021/12/24 07:34:54;;;;;;;10.73;4.43;;;-19.10;84.70;;;;;;2223045;64;20088;-43
2021/12/24 07:37:29;;;;;;;9.73;5.18;;;-18.80;84.30;;;;;;2223251;64;20639;-43
2021/12/24 07:40:03;;;;;;;9.60;4.27;;;-18.80;84.30;;;;;;2222837;64;20111;-44
2021/12/24 07:42:38;;;;;;;6.77;3.23;;;-18.90;84.00;;;;;;2219808;64;20122;-45
2021/12/24 07:45:10;;;;;;;9.13;3.27;;;-18.40;84.90;;;;;;2219776;64;20093;-44
2021/12/24 07:47:54;;;;;;;7.05;3.45;;;-18.30;83.10;;;;;;2220019;64;20138;-44
2021/12/24 07:53:05;;;;;;;7.13;3.53;;;-18.00;81.80;;;;;;2219780;64;20179;-43
2021/12/24 07:55:37;;;;;;;5.93;2.20;;;-17.70;81.60;;;;;;2219834;64;20172;-44
2021/12/24 07:58:16;;;;;;;9.73;4.00;;;-17.60;82.00;;;;;;2222901;64;20103;-44
2021/12/24 08:00:51;;;;;;;8.20;3.70;;;-17.50;80.80;;;;;;2219684;64;20099;-45
2021/12/24 08:03:27;;;;;;;10.50;4.17;;;-17.60;80.30;;;;;;2219835;64;20093;-44
2021/12/24 08:06:04;;;;;;;9.20;2.80;;;-17.70;79.20;;;;;;2219846;64;20081;-44
2021/12/24 08:08:39;;;;;;;8.73;4.63;;;-17.70;78.90;;;;;;2219877;64;20084;-44
2021/12/24 08:11:11;;;;;;;9.57;4.83;;;-18.10;80.90;;;;;;2219736;64;20159;-45
2021/12/24 08:13:48;;;;;;;10.43;3.37;;;-18.40;81.80;;;;;;2215668;64;20088;-45
2021/12/24 08:16:20;;;;;;;10.07;4.03;;;-18.00;81.60;;;;;;2219816;64;20097;-44
2021/12/24 08:18:52;;;;;;;11.00;4.70;;;-18.00;82.70;;;;;;2219697;64;20100;-44
2021/12/24 08:21:24;;;;;;;12.20;5.73;;;-18.30;82.10;;;;;;2219789;64;20177;-44
2021/12/24 08:23:55;;;;;;;7.77;2.63;;;-18.30;82.80;;;;;;2222901;64;20120;-44
2021/12/24 08:26:32;;;;;;;9.20;4.47;;;-18.20;83.90;;;;;;2216824;64;20085;-43
2021/12/24 08:29:06;;;;;;;5.93;3.17;;;-18.10;83.20;;;;;;2219464;64;20156;-43
2021/12/24 08:31:43;;;;;;;12.60;6.10;;;-18.10;83.10;;;;;;2222992;64;20089;-43
2021/12/24 08:34:11;;;;;;;10.47;3.80;;;-18.10;81.50;;;;;;2220206;64;20475;-45
2021/12/24 08:36:37;;;;;;;4.37;2.20;;;-17.90;80.90;;;;;;2219883;64;20160;-45
2021/12/24 08:39:04;;;;;;;10.67;4.97;;;-17.70;81.20;;;;;;2220449;64;20115;-46
2021/12/24 08:41:31;;;;;;;9.40;3.53;;;-17.60;81.50;;;;;;2220655;64;20162;-44
2021/12/24 08:43:57;;;;;;;9.90;4.13;;;-17.50;81.20;;;;;;2221115;64;20441;-44
2021/12/24 08:46:24;;;;;;;9.57;4.67;;;-17.50;80.30;;;;;;2221109;64;20099;-45
2021/12/24 08:48:50;;;;;;;7.77;4.27;;;-17.70;80.40;;;;;;2221050;64;20583;-45
2021/12/24 08:51:17;;;;;;;7.97;3.67;;;-17.80;80.10;;;;;;2220972;64;20564;-43
2021/12/24 08:53:44;;;;;;;8.67;4.33;;;-17.70;80.60;;;;;;2221115;64;20645;-44
2021/12/24 08:56:10;;;;;;;10.47;3.77;;;-17.40;80.10;;;;;;2221319;64;20081;-46
2021/12/24 08:58:37;;;;;;;5.70;2.23;;;-17.50;79.00;;;;;;2221136;64;20552;-44
2021/12/24 09:01:04;;;;;;;12.47;5.47;;;-17.30;80.80;;;;;;2220952;64;20102;-45
2021/12/24 09:03:33;;;;;;;10.23;4.10;;;-17.10;77.90;;;;;;2220814;64;20120;-45
2021/12/24 09:06:02;;;;;;;9.50;3.43;;;-17.00;77.80;;;;;;2220907;64;20464;-46
2021/12/24 09:08:32;;;;;;;11.63;3.23;;;-16.70;79.40;;;;;;2221099;64;20096;-46
2021/12/24 09:10:58;;;;;;;7.50;3.40;;;-16.50;77.10;;;;;;2220906;64;20530;-45
2021/12/24 09:13:26;;;;;;;8.93;4.87;;;-16.50;76.40;;;;;;2221051;64;20097;-46
2021/12/24 09:15:55;;;;;;;11.10;4.30;;;-16.70;76.60;;;;;;2220685;64;20519;-45
2021/12/24 09:18:23;;;;;;;8.47;3.90;;;-16.30;75.60;;;;;;2221025;64;20157;-47
2021/12/24 09:20:49;;;;;;;6.07;3.00;;;-16.30;74.80;;;;;;2221005;64;20180;-47
2021/12/24 09:23:18;;;;;;;8.33;3.40;;;-16.50;74.70;;;;;;2220407;64;20077;-44
2021/12/24 09:25:45;;;;;;;10.53;5.33;;;-16.50;76.70;;;;;;2221038;64;20204;-45
2021/12/24 09:28:13;;;;;;;6.97;2.83;;;-16.70;76.90;;;;;;2220994;64;20073;-45
2021/12/24 09:30:41;;;;;;;9.27;3.97;;;-16.50;75.90;;;;;;2220448;64;20158;-46
2021/12/24 09:33:09;;;;;;;10.43;3.60;;;-16.70;74.80;;;;;;2221034;64;20100;-46
2021/12/24 09:35:36;;;;;;;8.30;4.00;;;-16.60;75.60;;;;;;2220994;64;20107;-44
2021/12/24 09:38:06;;;;;;;8.60;4.27;;;-16.80;76.50;;;;;;2221110;64;20089;-44
2021/12/24 09:40:33;;;;;;;5.97;2.83;;;-17.10;76.70;;;;;;2220371;64;20118;-43
2021/12/24 09:43:00;;;;;;;6.93;2.37;;;-16.60;75.90;;;;;;2220405;64;20185;-45
2021/12/24 09:45:27;;;;;;;6.13;4.03;;;-16.60;76.90;;;;;;2220897;64;20073;-43
2021/12/24 09:47:53;;;;;;;9.70;3.93;;;-16.60;74.70;;;;;;2221347;64;20101;-43
2021/12/24 09:50:23;;;;;;;10.90;3.67;;;-16.50;74.70;;;;;;2220707;64;20469;-43
2021/12/24 09:52:49;;;;;;;8.57;4.27;;;-16.50;74.90;;;;;;2221013;64;20096;-44
2021/12/24 09:55:23;;;;;;;10.60;4.50;;;-16.60;74.80;;;;;;2220839;64;20568;-44
2021/12/24 09:57:50;;;;;;;5.35;2.88;;;-16.70;76.50;;;;;;2220894;64;20093;-44
2021/12/24 10:00:18;;;;;;;10.70;5.07;;;-16.40;76.70;;;;;;2220868;64;20229;-45
2021/12/24 10:02:48;;;;;;;10.57;3.07;;;-16.70;74.70;;;;;;2221082;64;20100;-45
2021/12/24 10:05:36;;;;;;;7.30;4.20;;;-16.50;76.90;;;;;;2221266;64;20096;-43
2021/12/24 10:08:21;;;;;;;8.03;4.63;;;-16.60;76.00;;;;;;2220462;64;20175;-45
2021/12/24 10:10:51;;;;;;;9.90;3.80;;;-16.60;77.60;;;;;;2221216;64;20488;-45
2021/12/24 10:13:43;;;;;;;9.83;4.97;;;-16.50;76.50;;;;;;2220671;64;20556;-45
2021/12/24 10:16:20;;;;;;;11.90;4.93;;;-16.80;76.80;;;;;;2221146;64;20077;-44
2021/12/24 10:18:50;;;;;;;10.63;4.23;;;-16.80;78.10;;;;;;2220663;64;20093;-44
2021/12/24 10:21:27;;;;;;;8.37;4.10;;;-16.50;76.20;;;;;;2220812;64;20115;-45
2021/12/24 10:23:59;;;;;;;10.30;4.03;;;-16.80;77.60;;;;;;2220769;64;20112;-44
2021/12/24 10:26:42;;;;;;;9.80;3.27;;;-16.80;78.10;;;;;;2220785;64;20590;-44
2021/12/24 10:29:09;;;;;;;11.83;3.33;;;-16.70;79.10;;;;;;2220597;64;20097;-43
2021/12/24 10:31:46;;;;;;;9.00;4.33;;;-16.70;78.00;;;;;;2220824;64;20156;-44
2021/12/24 10:34:17;;;;;;;9.10;3.93;;;-16.60;79.00;;;;;;2220531;64;20105;-44
2021/12/24 10:36:57;;;;;;;6.80;3.50;;;-16.60;79.60;;;;;;2220808;64;20173;-44
2021/12/24 10:39:27;;;;;;;11.80;4.67;;;-16.70;79.30;;;;;;2223277;64;20101;-42
2021/12/24 10:41:55;;;;;;;6.80;2.83;;;-16.60;78.20;;;;;;2220772;64;20166;-44
2021/12/24 10:44:24;;;;;;;13.80;5.20;;;-16.80;80.10;;;;;;2221043;64;20160;-44
2021/12/24 10:47:26;;;;;;;13.73;5.63;;;-17.00;80.00;;;;;;2221060;64;20091;-47
2021/12/24 10:53:21;;;;;;;9.00;4.43;;;-17.00;81.30;;;;;;2215086;64;20206;-43
2021/12/24 10:55:56;;;;;;;6.13;3.10;;;-17.00;81.40;;;;;;2215312;64;20100;-44
2021/12/24 10:58:34;;;;;;;10.87;4.90;;;-17.10;82.40;;;;;;2207761;64;20093;-45
2021/12/24 11:01:02;;;;;;;9.43;4.07;;;-17.10;83.00;;;;;;2204821;64;20113;-45
2021/12/24 11:03:32;;;;;;;6.20;2.67;;;-17.00;83.00;;;;;;2211302;64;20097;-44
2021/12/24 11:06:08;;;;;;;11.17;4.00;;;-16.80;82.70;;;;;;2211002;64;20107;-44
2021/12/24 11:08:35;;;;;;;6.30;2.37;;;-16.90;82.00;;;;;;2211358;64;20187;-44
2021/12/24 11:11:07;;;;;;;9.90;5.13;;;-17.10;82.10;;;;;;2210949;64;20600;-44
2021/12/24 11:13:38;;;;;;;6.47;2.60;;;-17.00;82.10;;;;;;2208127;64;20077;-44
2021/12/24 11:16:06;;;;;;;6.63;2.17;;;-16.90;83.90;;;;;;2211056;64;20515;-44
2021/12/24 11:18:48;;;;;;;7.57;3.17;;;-16.80;83.40;;;;;;2211250;64;20089;-44
2021/12/24 11:21:25;;;;;;;9.70;3.27;;;-16.80;81.70;;;;;;2211101;64;20097;-44
2021/12/24 11:23:51;;;;;;;12.37;4.60;;;-16.70;83.00;;;;;;2211259;64;20171;-46
2021/12/24 11:26:25;;;;;;;6.40;3.30;;;-16.90;82.60;;;;;;2211302;64;20643;-45
2021/12/24 11:28:53;;;;;;;9.37;1.67;;;-16.80;83.00;;;;;;2210395;64;20097;-46
2021/12/24 11:31:30;;;;;;;10.43;3.50;;;-16.80;83.00;;;;;;2214856;64;20583;-44
2021/12/24 11:34:02;;;;;;;10.43;5.43;;;-16.70;83.90;;;;;;2215073;64;20104;-45
2021/12/24 11:36:30;;;;;;;17.53;3.50;;;-16.70;83.10;;;;;;2216773;64;20101;-45
2021/12/24 11:39:02;;;;;;;5.60;2.63;;;-16.80;83.20;;;;;;2220700;64;20088;-43
2021/12/24 11:41:31;;;;;;;7.33;3.30;;;-16.80;84.00;;;;;;2220427;64;20104;-43
2021/12/24 11:44:01;;;;;;;9.03;3.10;;;-16.80;84.00;;;;;;2220594;64;20100;-44
2021/12/24 11:46:39;;;;;;;11.07;5.70;;;-16.90;84.70;;;;;;2220567;64;20099;-45
2021/12/24 11:49:05;;;;;;;12.93;4.53;;;-17.00;84.30;;;;;;2220653;64;20093;-44
2021/12/24 11:51:40;;;;;;;8.70;4.07;;;-16.90;85.00;;;;;;2220163;64;20092;-43
2021/12/24 11:54:09;;;;;;;8.43;2.83;;;-16.90;85.50;;;;;;2220579;64;20093;-43
2021/12/24 11:56:45;;;;;;;10.73;4.53;;;-16.80;85.80;;;;;;2220596;64;20080;-44
2021/12/24 11:59:12;;;;;;;7.33;3.23;;;-16.70;85.40;;;;;;2220169;64;20084;-45
2021/12/24 12:01:41;;;;;;;5.83;2.47;;;-16.70;85.40;;;;;;2220694;64;20197;-46
2021/12/24 12:04:22;;;;;;;10.13;4.50;;;-16.80;85.00;;;;;;2220605;64;20096;-44
2021/12/24 12:06:51;;;;;;;6.20;3.07;;;-16.80;85.70;;;;;;2220385;64;20084;-46
2021/12/24 12:09:17;;;;;;;7.57;2.20;;;-16.70;85.20;;;;;;2220707;64;20093;-46
2021/12/24 12:11:45;;;;;;;5.93;2.93;;;-16.60;85.80;;;;;;2220787;64;20616;-43
2021/12/24 12:14:14;;;;;;;10.27;2.40;;;-16.70;85.70;;;;;;2220211;64;20108;-45
2021/12/24 12:16:41;;;;;;;9.33;3.43;;;-16.70;85.70;;;;;;2220389;64;20092;-43
2021/12/24 12:22:16;;;;;;;13.47;4.73;;;-17.00;86.30;;;;;;2220331;64;20144;-45
2021/12/24 12:27:28;;;;;;;3.73;1.93;;;-17.20;88.50;;;;;;2220723;64;20556;-44
2021/12/24 12:29:54;;;;;;;5.60;2.30;;;-17.10;88.90;;;;;;2214801;64;20157;-45
2021/12/24 12:32:38;;;;;;;9.27;3.73;;;-17.10;89.00;;;;;;2211945;64;20097;-46
2021/12/24 12:35:05;;;;;;;0.63;0.53;;;-17.20;89.00;;;;;;2215043;64;20243;-47
2021/12/24 12:37:49;;;;;;;3.27;1.43;;;-17.20;89.70;;;;;;2214988;64;20100;-47
2021/12/24 12:40:20;;;;;;;4.75;2.17;;;-17.20;89.30;;;;;;2214921;64;20109;-44
2021/12/24 12:43:08;;;;;;;7.80;4.00;;;-16.90;89.20;;;;;;2214722;64;20093;-48
2021/12/24 12:45:41;;;;;;;4.10;1.60;;;-17.20;88.20;;;;;;2214738;64;20077;-45
2021/12/24 12:48:09;;;;;;;10.00;2.57;;;-17.40;88.60;;;;;;2214762;64;20100;-47
2021/12/24 12:50:37;;;;;;;9.27;4.17;;;-17.50;89.30;;;;;;2214602;64;20135;-45
2021/12/24 12:53:22;;;;;;;14.67;5.10;;;-17.50;90.00;;;;;;2214948;64;20077;-45
2021/12/24 12:56:17;;;;;;;8.77;2.93;;;-17.60;90.20;;;;;;2214907;64;20097;-45
2021/12/24 12:59:04;;;;;;;10.70;4.00;;;-17.80;90.50;;;;;;2214981;64;20112;-47
2021/12/24 13:01:31;;;;;;;7.97;4.35;;;-17.70;90.80;;;;;;2218306;64;20576;-47
2021/12/24 13:04:03;;;;;;;11.57;4.60;;;-17.80;90.90;;;;;;2220372;64;20095;-46
2021/12/24 13:06:36;;;;;;;12.57;5.13;;;-17.80;91.00;;;;;;2220140;64;20105;-47
2021/12/24 13:09:09;;;;;;;7.80;2.77;;;-17.90;91.20;;;;;;2220271;64;20466;-45
2021/12/24 13:11:42;;;;;;;14.13;5.03;;;-17.90;91.10;;;;;;2220234;64;20081;-46
2021/12/24 13:14:09;;;;;;;15.70;6.37;;;-18.00;91.50;;;;;;2220456;64;20549;-46
2021/12/24 13:17:04;;;;;;;9.53;2.97;;;-18.10;91.20;;;;;;2220148;64;20542;-45
2021/12/24 13:22:36;;;;;;;11.87;3.60;;;-18.10;91.40;;;;;;2220240;64;20678;-46
2021/12/24 13:25:11;;;;;;;14.17;3.40;;;-18.20;91.60;;;;;;2220344;64;20084;-44
2021/12/24 13:27:54;;;;;;;9.47;2.73;;;-18.20;91.60;;;;;;2222683;64;20148;-45
2021/12/24 13:30:24;;;;;;;11.50;4.70;;;-18.20;91.60;;;;;;2220885;64;20162;-46
2021/12/24 13:33:02;;;;;;;11.00;4.83;;;-18.20;91.80;;;;;;2221288;64;20226;-46
2021/12/24 13:35:32;;;;;;;4.83;1.23;;;-18.20;91.80;;;;;;2220814;64;20485;-45
2021/12/24 13:37:59;;;;;;;10.17;4.03;;;-18.20;91.90;;;;;;2220999;64;20103;-46
2021/12/24 13:40:37;;;;;;;11.63;4.33;;;-18.30;91.90;;;;;;2220756;64;20092;-45
2021/12/24 13:43:06;;;;;;;16.57;4.73;;;-18.30;92.20;;;;;;2221092;64;20081;-45
2021/12/24 13:45:37;;;;;;;7.20;2.80;;;-18.30;92.40;;;;;;2220926;64;20089;-46
2021/12/24 13:48:11;;;;;;;5.80;1.93;;;-18.30;92.60;;;;;;2220851;64;20540;-46
2021/12/24 13:56:39;;;;;;;14.07;4.17;;;-18.40;93.10;;;;;;2220779;64;20158;-45
2021/12/24 13:59:06;;;;;;;9.67;3.47;;;-18.40;93.30;;;;;;2220507;64;20538;-46
2021/12/24 14:01:33;;;;;;;20.40;7.53;;;-18.40;93.30;;;;;;2220844;64;20081;-45
2021/12/24 14:04:00;;;;;;;2.90;1.53;;;-18.40;93.30;;;;;;2220655;64;20092;-46
2021/12/24 14:06:34;;;;;;;13.80;5.93;;;-18.40;93.60;;;;;;2220846;64;20169;-46
2021/12/24 14:09:11;;;;;;;11.82;4.90;;;-18.40;93.90;;;;;;2220651;64;20073;-45
2021/12/24 14:11:38;;;;;;;9.30;2.97;;;-18.30;94.10;;;;;;2220650;64;20176;-44
2021/12/24 14:14:22;;;;;;;14.60;7.30;;;-18.30;94.00;;;;;;2220678;64;20097;-45
2021/12/24 14:16:59;;;;;;;14.97;5.33;;;-18.30;93.70;;;;;;2221434;64;20101;-45
2021/12/24 14:19:37;;;;;;;8.70;3.77;;;-18.30;93.70;;;;;;2219996;64;20100;-46
2021/12/24 14:22:16;;;;;;;9.00;3.53;;;-18.30;93.70;;;;;;2220335;64;20090;-44
2021/12/24 14:24:57;;;;;;;17.27;7.97;;;-18.30;93.70;;;;;;2220663;64;20096;-45
2021/12/24 14:27:28;;;;;;;12.63;3.87;;;-18.40;93.60;;;;;;2220746;64;20103;-45
2021/12/24 14:30:06;;;;;;;21.60;5.53;;;-18.40;93.70;;;;;;2219180;64;20093;-43
2021/12/24 14:32:38;;;;;;;21.73;8.67;;;-18.40;93.80;;;;;;2220329;64;20084;-44
2021/12/24 14:35:21;;;;;;;16.07;7.43;;;-18.40;93.80;;;;;;2220375;64;20188;-45
2021/12/24 14:37:55;;;;;;;17.20;5.97;;;-18.40;93.90;;;;;;2220789;64;20084;-45
2021/12/24 14:40:22;;;;;;;15.82;5.35;;;-18.40;94.00;;;;;;2220780;64;20094;-45
2021/12/24 14:42:50;;;;;;;12.80;5.33;;;-18.30;94.10;;;;;;2220795;64;20088;-45
2021/12/24 14:45:28;;;;;;;15.10;3.83;;;-18.30;94.10;;;;;;2220630;64;20552;-45
2021/12/24 14:48:24;;;;;;;23.13;8.50;;;-18.30;94.10;;;;;;2220054;64;20464;-46
2021/12/24 14:51:02;;;;;;;26.20;6.87;;;-18.30;94.20;;;;;;2219822;64;20106;-46
2021/12/24 14:53:36;;;;;;;20.63;9.80;;;-18.30;94.10;;;;;;2220630;64;20085;-45
2021/12/24 14:56:22;;;;;;;26.43;7.83;;;-18.30;94.10;;;;;;2220566;64;20623;-45
2021/12/24 14:58:54;;;;;;;14.23;4.17;;;-18.30;94.10;;;;;;2220712;64;20092;-45
2021/12/24 15:01:23;;;;;;;22.33;8.60;;;-18.30;94.20;;;;;;2220650;64;20085;-46
2021/12/24 15:03:57;;;;;;;17.07;8.67;;;-18.30;94.20;;;;;;2220111;64;20085;-43
2021/12/24 15:06:29;;;;;;;21.55;7.50;;;-18.30;94.20;;;;;;2220350;64;20563;-45